Terminal Aerodrome Forecast
Issued by NWS

Home | Current Version | Previous Version | Graphics & Text | Print | Product List | Glossary On
Versions: 1 2 3 4 5 6 7 8 9 10 11 12 13 14 15 16 17 18 19 20 21 22
000
FTUS41 KCLE 241100
TAFFDY
TAF
KFDY 241130Z 2412/2512 07004KT 6SM BR FEW010 SCT250
      TEMPO 2412/2413 4SM BR
     FM241500 07007KT P6SM BKN015
     FM241800 06006KT P6SM SCT035 BKN250
     FM250100 08005KT P6SM SCT100
     FM250900 12003KT 3SM BR SCT080=

USA.gov is the U.S. government's official web portal to all federal, state and local government web resources and services.